Bei Facebook empfehlenBei Twitter postenGoogle plusPinterest

Das Wetter im Erzgebirge am 07.09.2015

Wetter und Klima am 07.09.2015 Holzhau im Erzgebirge (630m ü.NN)
Letzte gemessene Temperatur und Uhrzeit der Messung23:45:00 Uhr4.60 °C
Temperatur (Maximum / Höchstwert) und Uhrzeit der Messung15:45:00 Uhr13.70 °C
Temperatur (Minimum / Tiefstwert) und Uhrzeit der Messung23:30:004.40 °C
Errechneter Absolutwert der Temperaturschwankungen zwischen Tmin und Tmax des Tages9.30 K
Errechnete Tagesmitteltemperatur8.42708 °C
Gesamt - Niederschlag des Tages (in flüssiger Form)7.77 Liter / m²
Luftdruck (Maximum / Höchstwert) und Zeitpunkt der Messung23:30:00 Uhr1020.10 hPa
Luftdruck (Minimum / Tiefstwert) und Zeitpunkt der Messung06:45:00 Uhr1015.40 hPa
Errechneter Absolutwert der Luftdruckschwankungen des Tages4.70 hPa
Höchste gemessene Windgeschwindigkeit und Uhrzeit der Messung12:45:00 Uhr9.72 km/h
Errechnete Windhäufigkeit in Relation zu den Messwerten des Tages12.50000 %
Niedrigste Windkühle (Windchill) und Zeitpunkt der Messung23:30:00 Uhr4.40 °C
Taupunkt (Maximum / Höchstwert) und Uhrzeit der Messung15:45:00 Uhr12.30 °C
Taupunkt (Minimum / Tiefstwert) und Uhrzeit der Messung22:15:002.80 °C
Anzahl der automatisch eingelesenen Messwerte 96

Detaillierte Wetter- und Klima- Messwerte für den 07.09.2015 in Holzhau im Erzgebirge (630m ü.NN)
ZeitTemperaturLuftdruckRel. LuftfeuchteWindWindrichtungWindchillTaupunktNiederschlag l/m²
23:45:004.60 °C1019.90 hPa91.00 %3.30 °C7.77
23:30:004.40 °C1020.10 hPa91.00 %3.10 °C7.77
23:15:004.60 °C1019.80 hPa90.00 %3.10 °C7.77
23:00:004.80 °C1019.80 hPa90.00 %3.30 °C7.77
22:45:004.80 °C1019.70 hPa90.00 %3.30 °C7.77
22:30:004.40 °C1019.90 hPa90.00 %2.90 °C7.77
22:15:004.40 °C1019.60 hPa89.00 %2.80 °C7.77
22:00:004.90 °C1019.70 hPa89.00 %3.20 °C7.77
21:45:005.30 °C1019.60 hPa89.00 %3.60 °C7.77
21:30:005.50 °C1019.80 hPa89.00 %3.80 °C7.77
21:15:005.90 °C1019.50 hPa88.00 %4.10 °C7.77
21:00:006.30 °C1019.30 hPa88.00 %4.50 °C7.77
20:45:006.60 °C1018.90 hPa87.00 %4.60 °C7.77
20:30:007.00 °C1018.70 hPa87.00 %5.00 °C7.77
20:15:007.20 °C1018.80 hPa86.00 %5.00 °C7.77
20:00:007.50 °C1018.60 hPa85.00 %5.10 °C7.77
19:45:007.90 °C1018.60 hPa84.00 %5.40 °C7.77
19:30:008.60 °C1018.50 hPa83.00 %5.90 °C7.77
19:15:009.30 °C1018.20 hPa81.00 %6.20 °C7.77
19:00:0010.30 °C1018.20 hPa81.00 %7.20 °C7.77
18:45:0011.30 °C1018.30 hPa81.00 %8.20 °C7.77
18:30:0011.50 °C1018.10 hPa82.00 %8.50 °C7.77
18:15:0011.00 °C1018.10 hPa81.00 %7.90 °C7.77
18:00:0011.10 °C1017.80 hPa80.00 %7.80 °C7.77
17:45:0011.80 °C1018.00 hPa80.00 %8.50 °C7.77
17:30:0012.40 °C1017.80 hPa80.00 %9.10 °C7.77
17:15:0013.30 °C1017.80 hPa81.00 %10.10 °C7.77
17:00:0012.80 °C1017.70 hPa84.00 %2.16 km/hW12.80 °C10.20 °C7.77
16:45:0011.90 °C1017.70 hPa85.00 %9.50 °C7.77
16:30:0012.20 °C1017.80 hPa86.00 %9.90 °C7.77
16:15:0012.50 °C1017.60 hPa87.00 %10.40 °C7.77
16:00:0013.40 °C1017.70 hPa88.00 %11.50 °C7.77
15:45:0013.70 °C1017.50 hPa91.00 %2.88 km/hNNW13.70 °C12.30 °C7.77
15:30:0013.20 °C1017.40 hPa92.00 %11.90 °C7.77
15:15:0013.50 °C1017.50 hPa92.00 %7.20 km/hN13.30 °C12.20 °C7.77
15:00:0013.10 °C1017.50 hPa95.00 %12.30 °C7.77
14:45:0012.10 °C1017.40 hPa94.00 %11.20 °C7.77
14:30:0012.30 °C1017.30 hPa95.00 %11.50 °C7.77
14:15:0011.60 °C1017.40 hPa96.00 %11.00 °C7.77
14:00:009.80 °C1017.40 hPa95.00 %9.00 °C7.77
13:45:0010.30 °C1017.50 hPa95.00 %9.50 °C7.77
13:30:0010.50 °C1017.10 hPa96.00 %9.90 °C7.77
13:15:009.60 °C1017.10 hPa96.00 %9.00 °C7.77
13:00:009.20 °C1017.00 hPa96.00 %2.88 km/hSW9.20 °C8.60 °C7.77
12:45:009.80 °C1016.90 hPa95.00 %9.72 km/hSW8.40 °C9.00 °C7.77
12:30:0010.20 °C1016.50 hPa96.00 %5.40 km/hNW9.90 °C9.60 °C5.69
12:15:0010.00 °C1016.60 hPa96.00 %9.40 °C5.18
12:00:0010.10 °C1016.40 hPa96.00 %2.52 km/hW10.10 °C9.50 °C4.66
11:45:009.90 °C1016.20 hPa96.00 %9.30 °C4.14
11:30:009.60 °C1016.20 hPa96.00 %9.00 °C4.14
11:15:009.30 °C1016.10 hPa96.00 %8.70 °C3.62
11:00:008.90 °C1016.20 hPa96.00 %8.30 °C3.10
10:45:008.80 °C1016.30 hPa95.00 %8.00 °C3.10
10:30:008.60 °C1016.20 hPa95.00 %7.80 °C2.59
10:15:008.40 °C1016.10 hPa95.00 %7.60 °C2.59
10:00:008.10 °C1016.10 hPa95.00 %7.30 °C2.59
09:45:007.90 °C1015.90 hPa95.00 %7.10 °C2.59
09:30:007.80 °C1015.90 hPa95.00 %7.10 °C2.59
09:15:007.60 °C1016.00 hPa95.00 %6.90 °C2.59
09:00:007.50 °C1016.00 hPa95.00 %7.20 km/hS6.30 °C6.80 °C2.07
08:45:007.50 °C1015.90 hPa95.00 %6.80 °C2.07
08:30:007.40 °C1015.90 hPa95.00 %6.70 °C2.07
08:15:007.30 °C1015.70 hPa95.00 %6.60 °C1.55
08:00:007.20 °C1015.60 hPa95.00 %6.50 °C1.55
07:45:007.00 °C1015.70 hPa95.00 %6.30 °C1.55
07:30:006.90 °C1015.70 hPa95.00 %6.20 °C1.55
07:15:006.90 °C1015.60 hPa95.00 %6.20 °C1.55
07:00:006.90 °C1015.60 hPa95.00 %5.76 km/hNW6.00 °C6.20 °C1.55
06:45:006.90 °C1015.40 hPa95.00 %6.20 °C1.55
06:30:006.90 °C1015.40 hPa95.00 %6.20 °C1.55
06:15:006.80 °C1015.40 hPa95.00 %6.10 °C1.55
06:00:006.80 °C1015.60 hPa95.00 %6.10 °C1.55
05:45:006.80 °C1015.50 hPa95.00 %6.10 °C1.55
05:30:006.80 °C1015.50 hPa95.00 %6.10 °C1.55
05:15:006.80 °C1015.80 hPa95.00 %6.10 °C1.55
05:00:006.80 °C1015.60 hPa95.00 %6.10 °C1.55
04:45:006.80 °C1015.70 hPa95.00 %3.60 km/hSW6.80 °C6.10 °C1.55
04:30:006.90 °C1015.70 hPa95.00 %6.20 °C1.55
04:15:006.90 °C1015.90 hPa95.00 %6.20 °C1.55
04:00:006.90 °C1016.20 hPa95.00 %6.20 °C1.55
03:45:006.90 °C1016.20 hPa95.00 %6.20 °C1.55
03:30:006.90 °C1016.10 hPa95.00 %6.20 °C1.55
03:15:006.90 °C1016.50 hPa95.00 %6.20 °C1.55
03:00:007.00 °C1016.50 hPa95.00 %6.30 °C1.55
02:45:007.10 °C1016.60 hPa95.00 %6.40 °C1.55
02:30:007.20 °C1016.60 hPa95.00 %6.50 °C1.55
02:15:007.20 °C1016.70 hPa94.00 %6.30 °C1.55
02:00:007.30 °C1016.70 hPa94.00 %6.40 °C1.55
01:45:007.50 °C1016.80 hPa94.00 %6.60 °C1.55
01:30:007.60 °C1016.60 hPa95.00 %5.76 km/hW6.80 °C6.90 °C1.55
01:15:007.80 °C1016.70 hPa95.00 %7.10 °C1.03
01:00:007.80 °C1016.50 hPa95.00 %7.10 °C0.51
00:45:007.80 °C1016.50 hPa95.00 %7.56 km/hWNW6.50 °C7.10 °C 
00:30:007.90 °C1016.50 hPa95.00 %7.10 °C 
00:15:007.90 °C1016.50 hPa95.00 %7.10 °C 
00:00:008.10 °C1016.20 hPa95.00 %7.30 °C 

Permanenter Link zu dieser Seite: Wetter im Erzgebirge am 07.09.2015
Performance-Info: Die Erstellung der Seite / Statistik(en) / Tabelle(n) erforderte 5 Datenbankserver-Abfrage(n) und dauerte 100 Millisekunden. (Dieser Messwert ist von der Gesamt-Auslastung des Servers abhängig.)
Erzgebirge - Wetter | Erzgebirge - Wetter (Mobilgeräte) | Komplette Klimadatenbank